Time;durP1;ratioP1;P1;durP2;ratioP2;P2;SDS_P1;SDS_P2;PMS_P1;PMS_P2;Temp;Humidity;BMP_temperature;BMP_pressure;BME280_temperature;BME280_humidity;BME280_pressure;Samples;Min_cycle;Max_cycle;Signal;HPM_P1;HPM_P2
2021/06/06 04:02:39;;;;;;;8.00;7.30;;;16.30;99.90;;;;;;4977573;23;20522;-62
2021/06/06 04:05:07;;;;;;;7.17;6.57;;;16.30;99.90;;;;;;4978064;28;20438;-62
2021/06/06 04:07:33;;;;;;;6.97;6.37;;;16.40;99.90;;;;;;4977494;28;20451;-66
2021/06/06 04:10:01;;;;;;;7.57;6.77;;;16.40;99.90;;;;;;4977824;28;20461;-62
2021/06/06 04:12:27;;;;;;;6.83;6.30;;;16.40;99.90;;;;;;4977629;28;20462;-64
2021/06/06 04:14:53;;;;;;;6.30;5.87;;;16.40;99.90;;;;;;4983682;28;20458;-62
2021/06/06 04:17:20;;;;;;;6.30;5.80;;;16.40;99.90;;;;;;4986499;28;20489;-63
2021/06/06 04:19:47;;;;;;;8.93;6.60;;;16.30;99.90;;;;;;4976682;28;20446;-63
2021/06/06 04:22:13;;;;;;;7.90;6.17;;;16.30;99.90;;;;;;4976523;28;20483;-62
2021/06/06 04:24:40;;;;;;;7.07;6.47;;;16.20;99.90;;;;;;4976919;28;20454;-62
2021/06/06 04:27:06;;;;;;;7.47;6.70;;;16.10;99.90;;;;;;4976622;28;20462;-62
2021/06/06 04:29:33;;;;;;;7.43;6.67;;;16.10;99.90;;;;;;4977058;28;20856;-62
2021/06/06 04:32:01;;;;;;;7.97;7.27;;;16.10;99.90;;;;;;4976757;28;20843;-62
2021/06/06 04:34:28;;;;;;;7.83;7.00;;;16.10;99.90;;;;;;4976469;28;20514;-63
2021/06/06 04:36:55;;;;;;;8.13;7.07;;;16.10;99.90;;;;;;4976617;28;20481;-64
2021/06/06 04:39:21;;;;;;;7.27;6.57;;;16.20;99.90;;;;;;4975880;28;20454;-63
2021/06/06 04:41:47;;;;;;;8.37;6.70;;;16.10;99.90;;;;;;4976390;28;20487;-62
2021/06/06 04:44:14;;;;;;;8.00;7.33;;;16.10;99.90;;;;;;4978587;28;20443;-62
2021/06/06 04:46:40;;;;;;;8.43;6.67;;;16.10;99.90;;;;;;4976979;28;20513;-62
2021/06/06 04:49:06;;;;;;;10.83;7.47;;;16.10;99.90;;;;;;4976806;28;20465;-63
2021/06/06 04:51:33;;;;;;;8.87;7.40;;;16.20;99.90;;;;;;4975973;28;20471;-63
2021/06/06 04:54:01;;;;;;;7.87;7.17;;;16.20;99.90;;;;;;4976096;28;20462;-62
2021/06/06 04:56:29;;;;;;;7.07;6.37;;;16.10;99.90;;;;;;4975921;28;20454;-63
2021/06/06 04:58:56;;;;;;;7.20;6.50;;;16.10;99.90;;;;;;4976253;28;20451;-62
2021/06/06 05:01:23;;;;;;;9.70;6.50;;;16.10;99.90;;;;;;4975562;28;20541;-63
2021/06/06 05:03:49;;;;;;;8.40;7.50;;;16.10;99.90;;;;;;4975840;28;20455;-62
2021/06/06 05:06:16;;;;;;;8.47;7.27;;;16.00;99.90;;;;;;4975459;28;20463;-61
2021/06/06 05:08:43;;;;;;;7.80;7.07;;;16.10;99.90;;;;;;4975806;28;20459;-63
2021/06/06 05:11:10;;;;;;;9.83;7.70;;;16.10;99.90;;;;;;4975711;28;20494;-62
2021/06/06 05:13:36;;;;;;;9.63;8.60;;;16.10;99.90;;;;;;4976026;28;20513;-63
2021/06/06 05:16:04;;;;;;;8.33;7.47;;;16.10;99.90;;;;;;4975757;28;20481;-64
2021/06/06 05:18:30;;;;;;;10.20;8.80;;;16.20;99.90;;;;;;4974078;28;20446;-62
2021/06/06 05:20:57;;;;;;;8.30;7.60;;;16.10;99.90;;;;;;4975265;28;20470;-61
2021/06/06 05:23:25;;;;;;;11.93;8.10;;;16.20;99.90;;;;;;4975266;28;20485;-62
2021/06/06 05:25:52;;;;;;;9.37;8.37;;;16.10;99.90;;;;;;4975140;28;20458;-62
2021/06/06 05:28:25;;;;;;;8.90;7.80;;;16.20;99.90;;;;;;4975228;28;20461;-62
2021/06/06 05:30:51;;;;;;;9.43;8.13;;;16.20;99.90;;;;;;4975261;28;20479;-62
2021/06/06 05:33:17;;;;;;;10.33;8.83;;;16.20;99.90;;;;;;4975218;28;20451;-62
2021/06/06 05:35:44;;;;;;;11.73;9.10;;;16.20;99.90;;;;;;4975403;28;20455;-62
2021/06/06 05:38:13;;;;;;;10.70;9.27;;;16.20;99.90;;;;;;4975256;28;20529;-62
2021/06/06 05:40:42;;;;;;;10.03;9.00;;;16.10;99.90;;;;;;4975187;28;20481;-62
2021/06/06 05:43:09;;;;;;;10.90;9.10;;;16.10;99.90;;;;;;4974859;28;20475;-62
2021/06/06 05:45:38;;;;;;;10.80;9.60;;;16.10;99.90;;;;;;4974992;28;20507;-62
2021/06/06 05:48:05;;;;;;;11.00;8.97;;;16.20;99.90;;;;;;4974664;28;20961;-62
2021/06/06 05:50:35;;;;;;;11.17;8.67;;;16.30;99.90;;;;;;4975131;28;20482;-63
2021/06/06 05:53:01;;;;;;;9.90;8.70;;;16.30;99.90;;;;;;4975453;28;20438;-62
2021/06/06 05:55:28;;;;;;;10.67;9.57;;;16.40;99.90;;;;;;4974943;28;20455;-62
2021/06/06 05:57:54;;;;;;;11.00;9.90;;;16.40;99.90;;;;;;4975080;28;20451;-62
2021/06/06 06:00:25;;;;;;;11.27;9.77;;;16.40;99.90;;;;;;4974810;28;20466;-62
2021/06/06 06:02:53;;;;;;;10.80;9.80;;;16.40;99.90;;;;;;4974869;28;20463;-62
2021/06/06 06:05:19;;;;;;;13.37;11.67;;;16.40;99.90;;;;;;4974450;28;20451;-62
2021/06/06 06:07:45;;;;;;;13.97;11.50;;;16.30;99.90;;;;;;4974844;28;20941;-61
2021/06/06 06:10:14;;;;;;;13.90;11.17;;;16.30;99.90;;;;;;4974771;28;20450;-61
2021/06/06 06:12:40;;;;;;;13.07;11.30;;;16.20;99.90;;;;;;4974924;28;20941;-60
2021/06/06 06:15:08;;;;;;;12.00;10.80;;;16.30;99.90;;;;;;4975345;28;20454;-62
2021/06/06 06:17:35;;;;;;;14.00;12.00;;;16.30;99.90;;;;;;4974472;28;20454;-61
2021/06/06 06:20:04;;;;;;;12.73;11.43;;;16.40;99.90;;;;;;4974811;28;20463;-62
2021/06/06 06:22:31;;;;;;;12.93;11.60;;;16.40;99.90;;;;;;4974616;28;20478;-61
2021/06/06 06:24:57;;;;;;;13.20;11.57;;;16.40;99.90;;;;;;4975563;28;20459;-61
2021/06/06 06:27:23;;;;;;;10.97;9.87;;;16.50;99.90;;;;;;4974980;28;20461;-61
2021/06/06 06:29:49;;;;;;;11.23;10.10;;;16.50;99.90;;;;;;4974740;28;20455;-62
2021/06/06 06:32:15;;;;;;;11.30;10.20;;;16.50;99.90;;;;;;4974305;28;20474;-62
2021/06/06 06:34:42;;;;;;;11.83;10.63;;;16.60;99.90;;;;;;4974776;28;20449;-60
2021/06/06 06:37:09;;;;;;;12.87;10.20;;;16.60;99.90;;;;;;4975444;28;20857;-63
2021/06/06 06:39:35;;;;;;;11.27;10.27;;;16.60;99.90;;;;;;4974535;28;20865;-62
2021/06/06 06:42:02;;;;;;;11.57;10.37;;;16.60;99.90;;;;;;4974334;28;20494;-61
2021/06/06 06:44:29;;;;;;;10.70;9.63;;;16.60;99.90;;;;;;4974618;28;20459;-62
2021/06/06 06:46:55;;;;;;;12.30;11.20;;;16.50;99.90;;;;;;4974408;28;20545;-61
2021/06/06 06:49:21;;;;;;;12.07;10.97;;;16.60;99.90;;;;;;4974121;28;20942;-61
2021/06/06 06:51:47;;;;;;;11.93;10.40;;;16.60;99.90;;;;;;4975625;28;20826;-64
2021/06/06 06:54:15;;;;;;;11.27;10.00;;;16.60;99.90;;;;;;4975106;28;20455;-63
2021/06/06 06:56:41;;;;;;;11.93;10.93;;;16.60;99.90;;;;;;4974806;28;20466;-63
2021/06/06 06:59:07;;;;;;;12.40;11.20;;;16.50;99.90;;;;;;4974432;28;20462;-63
2021/06/06 07:01:33;;;;;;;12.07;10.97;;;16.50;99.90;;;;;;4974231;28;21020;-63
2021/06/06 07:04:00;;;;;;;11.77;10.57;;;16.50;99.90;;;;;;4978377;28;20443;-63
2021/06/06 07:06:26;;;;;;;11.47;10.27;;;16.60;99.90;;;;;;4978594;28;20451;-63
2021/06/06 07:08:52;;;;;;;13.37;12.10;;;16.60;99.90;;;;;;4977928;28;20946;-63
2021/06/06 07:11:22;;;;;;;12.70;11.50;;;16.70;99.90;;;;;;4978441;28;20474;-64
2021/06/06 07:13:49;;;;;;;12.37;11.20;;;16.60;99.90;;;;;;4979553;28;20455;-63
2021/06/06 07:16:18;;;;;;;12.90;11.60;;;16.60;99.90;;;;;;4980556;28;20454;-64
2021/06/06 07:18:45;;;;;;;11.63;10.63;;;16.60;99.90;;;;;;4979347;28;20466;-63
2021/06/06 07:21:15;;;;;;;13.17;11.43;;;16.70;99.90;;;;;;4979399;28;20532;-64
2021/06/06 07:23:42;;;;;;;14.63;11.90;;;16.70;99.90;;;;;;4978247;28;20926;-62
2021/06/06 07:26:13;;;;;;;12.37;11.10;;;16.70;99.90;;;;;;4978912;28;20454;-63
2021/06/06 07:28:41;;;;;;;12.97;11.40;;;16.80;99.90;;;;;;4979608;28;20449;-63
2021/06/06 07:31:07;;;;;;;12.97;11.67;;;16.80;99.90;;;;;;4977852;28;20533;-63
2021/06/06 07:33:37;;;;;;;13.83;12.37;;;16.80;99.90;;;;;;4978048;28;20451;-65
2021/06/06 07:36:06;;;;;;;12.57;11.13;;;16.80;99.90;;;;;;4977692;28;20502;-67
2021/06/06 07:38:32;;;;;;;13.73;12.37;;;16.80;99.90;;;;;;4977393;28;20458;-64
2021/06/06 07:41:00;;;;;;;16.10;12.47;;;16.90;99.90;;;;;;4977449;28;20474;-63
2021/06/06 07:43:28;;;;;;;15.27;12.63;;;17.00;99.90;;;;;;4976969;28;21081;-63
2021/06/06 07:45:55;;;;;;;13.53;12.20;;;17.10;99.90;;;;;;4977243;28;20461;-63
2021/06/06 07:48:22;;;;;;;15.37;13.30;;;17.10;99.90;;;;;;4977357;28;20443;-62
2021/06/06 07:50:51;;;;;;;14.07;12.57;;;17.00;99.90;;;;;;4977196;28;21007;-63
2021/06/06 07:53:19;;;;;;;15.13;13.23;;;17.00;99.90;;;;;;4979230;28;20937;-63
2021/06/06 07:55:45;;;;;;;16.47;14.17;;;17.00;99.90;;;;;;4979184;28;20530;-63
2021/06/06 07:58:12;;;;;;;16.80;14.00;;;17.00;99.90;;;;;;4977352;28;20497;-61
2021/06/06 08:00:41;;;;;;;15.33;13.20;;;17.00;99.90;;;;;;4977320;28;20483;-64
2021/06/06 08:03:08;;;;;;;16.90;14.50;;;17.00;99.90;;;;;;4977401;28;20459;-61
2021/06/06 08:05:37;;;;;;;16.40;14.33;;;17.00;99.90;;;;;;4977666;28;20517;-61
2021/06/06 08:08:05;;;;;;;16.70;14.83;;;16.90;99.90;;;;;;4976844;28;20565;-63
2021/06/06 08:10:34;;;;;;;16.50;14.50;;;16.90;99.90;;;;;;4976466;28;20461;-64
2021/06/06 08:13:01;;;;;;;16.53;14.87;;;16.90;99.90;;;;;;4976825;28;20454;-63
2021/06/06 08:15:28;;;;;;;19.17;14.53;;;16.90;99.90;;;;;;4975795;28;20864;-63
2021/06/06 08:17:54;;;;;;;17.83;14.70;;;17.00;99.90;;;;;;4977312;28;20542;-63
2021/06/06 08:20:26;;;;;;;21.80;16.77;;;17.10;99.90;;;;;;4977098;28;20972;-63
2021/06/06 08:22:53;;;;;;;18.37;15.70;;;17.10;99.90;;;;;;4976834;28;20467;-64
2021/06/06 08:25:21;;;;;;;17.53;15.53;;;17.10;99.90;;;;;;4976453;28;20455;-61
2021/06/06 08:27:49;;;;;;;18.60;16.70;;;17.00;99.90;;;;;;4976635;28;20458;-61
2021/06/06 08:30:20;;;;;;;19.27;16.50;;;17.10;99.90;;;;;;4976320;28;20933;-62
2021/06/06 08:32:46;;;;;;;20.70;16.80;;;17.10;99.90;;;;;;4976468;28;20937;-62
2021/06/06 08:35:13;;;;;;;18.43;16.17;;;17.20;99.90;;;;;;4976398;28;20788;-62
2021/06/06 08:37:41;;;;;;;21.80;17.47;;;17.20;99.90;;;;;;4977500;28;20508;-62
2021/06/06 08:40:11;;;;;;;21.20;17.90;;;17.20;99.90;;;;;;4977645;28;20838;-63
2021/06/06 08:42:41;;;;;;;23.13;16.90;;;17.20;99.90;;;;;;4977328;28;20841;-63
2021/06/06 08:45:13;;;;;;;20.90;18.43;;;17.20;99.90;;;;;;4977418;28;20459;-61
2021/06/06 08:47:40;;;;;;;21.70;18.73;;;17.30;99.90;;;;;;4976466;28;20502;-61
2021/06/06 08:50:13;;;;;;;23.37;20.07;;;17.30;99.90;;;;;;4976274;28;20450;-64
2021/06/06 08:52:47;;;;;;;26.87;21.43;;;17.30;99.90;;;;;;4975973;28;20446;-61
2021/06/06 08:55:27;;;;;;;27.20;21.50;;;17.50;99.90;;;;;;4976890;28;20907;-62
2021/06/06 08:58:01;;;;;;;26.93;21.27;;;17.40;99.90;;;;;;4979215;28;20443;-60
2021/06/06 09:00:32;;;;;;;26.23;19.17;;;17.40;99.90;;;;;;4975921;28;20461;-62
2021/06/06 09:03:04;;;;;;;26.50;19.43;;;17.40;99.90;;;;;;4976902;28;20518;-61
2021/06/06 09:05:33;;;;;;;22.57;19.37;;;17.50;99.90;;;;;;4976254;28;20439;-64
2021/06/06 09:08:04;;;;;;;24.10;19.23;;;17.60;99.90;;;;;;4975713;28;20533;-64
2021/06/06 09:10:35;;;;;;;22.20;18.73;;;17.60;99.90;;;;;;4975880;28;20440;-60
2021/06/06 09:13:04;;;;;;;21.40;19.20;;;17.70;99.90;;;;;;4976293;28;20435;-61
2021/06/06 09:15:30;;;;;;;22.67;18.50;;;17.80;99.90;;;;;;4976178;28;20451;-61
2021/06/06 09:17:58;;;;;;;23.23;19.47;;;17.80;99.90;;;;;;4976084;28;20458;-61
2021/06/06 09:20:30;;;;;;;20.07;17.97;;;17.80;99.90;;;;;;4976250;28;20465;-63
2021/06/06 09:23:08;;;;;;;22.03;19.70;;;17.90;99.90;;;;;;4975902;28;20475;-63
2021/06/06 09:25:37;;;;;;;21.93;19.47;;;18.00;99.90;;;;;;4976441;28;20497;-62
2021/06/06 09:28:06;;;;;;;22.47;20.17;;;18.10;99.90;;;;;;4975881;28;20454;-63
2021/06/06 09:30:33;;;;;;;23.93;19.03;;;18.10;99.90;;;;;;4976380;28;20455;-62
2021/06/06 09:33:09;;;;;;;23.43;20.30;;;18.10;99.90;;;;;;4976540;28;20439;-64
2021/06/06 09:35:39;;;;;;;22.83;20.50;;;18.30;99.90;;;;;;4980084;28;20522;-63
2021/06/06 09:38:21;;;;;;;25.23;21.20;;;18.50;99.90;;;;;;4989137;28;20462;-63
2021/06/06 09:40:50;;;;;;;24.97;22.30;;;18.60;99.90;;;;;;4990128;28;20502;-63
2021/06/06 09:43:26;;;;;;;24.73;20.37;;;18.70;99.90;;;;;;4990597;28;20475;-63
2021/06/06 09:46:04;;;;;;;25.87;22.97;;;18.80;99.90;;;;;;4982259;28;20446;-62
2021/06/06 09:48:33;;;;;;;24.37;21.87;;;18.90;99.90;;;;;;4976973;28;20446;-63
2021/06/06 09:51:10;;;;;;;32.57;25.70;;;19.10;99.90;;;;;;4977565;28;20529;-62
2021/06/06 09:53:39;;;;;;;32.57;29.27;;;19.10;99.90;;;;;;4976580;28;20910;-63
2021/06/06 09:56:08;;;;;;;34.80;31.10;;;19.20;99.90;;;;;;4977461;28;20953;-62
2021/06/06 09:58:38;;;;;;;36.57;32.50;;;19.20;99.90;;;;;;4976038;28;20443;-61
2021/06/06 10:01:18;;;;;;;39.03;33.67;;;18.90;99.90;;;;;;4975339;28;20489;-62
2021/06/06 10:03:53;;;;;;;38.13;34.03;;;18.90;99.90;;;;;;4975407;28;20467;-63
2021/06/06 10:06:26;;;;;;;38.83;32.40;;;18.80;99.90;;;;;;4975273;28;20917;-62
2021/06/06 10:09:05;;;;;;;45.00;35.60;;;18.70;99.90;;;;;;4975149;28;20439;-62
2021/06/06 10:11:37;;;;;;;40.23;34.47;;;18.60;99.90;;;;;;4974934;28;20474;-62
2021/06/06 10:14:04;;;;;;;42.97;35.23;;;18.70;99.90;;;;;;4975097;28;20458;-62
2021/06/06 10:16:36;;;;;;;40.47;36.17;;;18.60;99.90;;;;;;4975126;28;20454;-63
2021/06/06 10:19:08;;;;;;;38.57;34.40;;;18.60;99.90;;;;;;4975249;28;20462;-63
2021/06/06 10:21:36;;;;;;;42.13;37.00;;;18.60;99.90;;;;;;4974550;28;20475;-62
2021/06/06 10:24:10;;;;;;;44.00;35.30;;;18.50;99.90;;;;;;4974968;28;20486;-62
2021/06/06 10:26:39;;;;;;;43.40;37.67;;;18.50;99.90;;;;;;4975137;28;20469;-63
2021/06/06 10:29:11;;;;;;;41.87;34.67;;;18.50;99.90;;;;;;4975000;28;20468;-61
2021/06/06 10:31:41;;;;;;;40.23;35.83;;;18.40;99.90;;;;;;4974931;28;20871;-61
2021/06/06 10:34:26;;;;;;;48.17;39.00;;;18.50;99.90;;;;;;4976238;28;20465;-61
2021/06/06 10:36:53;;;;;;;43.40;36.60;;;18.60;99.90;;;;;;4975614;28;20450;-63
2021/06/06 10:39:22;;;;;;;45.27;36.70;;;18.60;99.90;;;;;;4978236;28;20970;-61
2021/06/06 10:41:53;;;;;;;43.50;38.17;;;18.80;99.90;;;;;;4978266;28;20478;-61
2021/06/06 10:44:24;;;;;;;51.13;41.33;;;18.80;99.90;;;;;;4978949;28;20891;-63
2021/06/06 10:46:55;;;;;;;51.70;39.30;;;18.60;99.90;;;;;;4978260;28;20438;-63
2021/06/06 10:49:25;;;;;;;50.67;41.93;;;18.60;99.90;;;;;;4978138;28;20458;-59
2021/06/06 10:51:56;;;;;;;59.40;45.37;;;18.50;99.90;;;;;;4978327;28;20482;-62
2021/06/06 10:54:38;;;;;;;64.07;47.83;;;18.40;99.90;;;;;;4978460;28;20442;-60
2021/06/06 10:57:07;;;;;;;66.73;47.03;;;18.40;99.90;;;;;;4978385;28;20659;-61
2021/06/06 10:59:38;;;;;;;57.83;46.83;;;18.40;99.90;;;;;;4978320;28;20481;-61
2021/06/06 11:02:06;;;;;;;64.63;48.03;;;18.50;99.90;;;;;;4978016;28;20486;-61
2021/06/06 11:04:35;;;;;;;58.17;47.47;;;18.50;99.90;;;;;;4978057;28;20458;-60
2021/06/06 11:07:09;;;;;;;63.00;48.40;;;18.60;99.90;;;;;;4977983;28;20462;-60
2021/06/06 11:09:39;;;;;;;68.90;52.57;;;18.60;99.90;;;;;;4978126;28;20443;-61
2021/06/06 11:12:11;;;;;;;66.10;49.97;;;18.70;99.90;;;;;;4978956;28;20467;-66
2021/06/06 11:14:45;;;;;;;61.50;48.17;;;18.80;99.90;;;;;;4977746;28;20921;-61
2021/06/06 11:17:15;;;;;;;71.40;52.33;;;18.80;99.90;;;;;;4977834;28;20438;-62
2021/06/06 11:19:42;;;;;;;73.37;53.43;;;18.70;99.90;;;;;;4978375;28;20443;-61
2021/06/06 11:22:28;;;;;;;73.30;52.87;;;18.60;99.90;;;;;;4978170;28;20903;-61
2021/06/06 11:24:56;;;;;;;77.50;53.20;;;18.60;99.90;;;;;;4975540;28;20510;-64
2021/06/06 11:27:30;;;;;;;75.20;53.90;;;18.50;99.90;;;;;;4977996;28;20439;-61
2021/06/06 11:29:59;;;;;;;77.10;53.50;;;18.60;99.90;;;;;;4978394;28;20451;-61
2021/06/06 11:32:29;;;;;;;78.97;53.90;;;18.50;99.90;;;;;;4978598;28;20481;-60
2021/06/06 11:35:29;;;;;;;71.50;50.57;;;18.60;99.90;;;;;;4978575;28;20505;-61
2021/06/06 11:37:58;;;;;;;63.03;47.67;;;18.60;99.90;;;;;;4979573;28;20439;-63
2021/06/06 11:40:36;;;;;;;64.30;47.73;;;18.60;99.90;;;;;;4978267;28;20443;-63
2021/06/06 11:43:16;;;;;;;59.73;46.17;;;18.60;99.90;;;;;;4977721;28;20470;-59
2021/06/06 11:45:45;;;;;;;58.10;45.90;;;18.60;99.90;;;;;;4977553;28;20446;-61
2021/06/06 11:48:17;;;;;;;54.27;42.30;;;18.60;99.90;;;;;;4976818;28;20455;-61
2021/06/06 11:50:48;;;;;;;52.87;41.80;;;18.60;99.90;;;;;;4976728;28;20494;-60
2021/06/06 11:53:22;;;;;;;57.00;45.33;;;18.70;99.90;;;;;;4977031;28;20981;-62
2021/06/06 11:55:52;;;;;;;60.87;47.60;;;18.60;99.90;;;;;;4977239;28;20553;-62
2021/06/06 11:58:21;;;;;;;52.20;44.07;;;18.70;99.90;;;;;;4976889;28;20802;-63
2021/06/06 12:00:50;;;;;;;52.10;42.47;;;18.70;99.90;;;;;;4977798;28;20494;-63
2021/06/06 12:03:24;;;;;;;55.53;45.10;;;18.80;99.90;;;;;;4977234;28;20467;-62
2021/06/06 12:05:53;;;;;;;51.90;43.30;;;18.80;99.90;;;;;;4976730;28;20910;-62
2021/06/06 12:08:34;;;;;;;52.83;43.37;;;18.80;99.90;;;;;;4976963;28;20443;-63
2021/06/06 12:11:05;;;;;;;53.87;44.33;;;18.90;99.90;;;;;;4977069;28;20884;-63
2021/06/06 12:13:37;;;;;;;55.93;45.47;;;18.80;99.90;;;;;;4976600;28;20489;-62
2021/06/06 12:16:10;;;;;;;55.57;45.10;;;19.00;99.90;;;;;;4976896;28;20454;-64
2021/06/06 12:18:38;;;;;;;52.17;44.07;;;19.10;99.90;;;;;;4977156;28;20443;-63
2021/06/06 12:21:10;;;;;;;51.80;41.87;;;19.20;99.90;;;;;;4976714;28;20877;-64
2021/06/06 12:23:38;;;;;;;50.57;42.60;;;19.30;99.90;;;;;;4977018;28;20462;-62
2021/06/06 12:26:12;;;;;;;53.90;43.37;;;19.30;99.90;;;;;;4976621;28;20518;-63
2021/06/06 12:28:43;;;;;;;52.43;44.00;;;19.20;99.90;;;;;;4977640;28;20443;-63
2021/06/06 12:31:21;;;;;;;51.00;43.50;;;19.40;99.90;;;;;;4977586;28;20474;-63
2021/06/06 12:33:47;;;;;;;50.03;41.77;;;19.40;99.90;;;;;;4976516;28;20435;-63
2021/06/06 12:36:18;;;;;;;54.70;45.97;;;19.60;99.90;;;;;;4976327;28;20443;-63
2021/06/06 12:38:45;;;;;;;55.30;43.73;;;19.60;99.90;;;;;;4976588;28;20447;-62
2021/06/06 12:41:14;;;;;;;54.83;46.50;;;19.60;99.90;;;;;;4976253;28;20474;-63
2021/06/06 12:43:45;;;;;;;53.37;44.40;;;19.70;99.90;;;;;;4976508;28;20486;-63
2021/06/06 12:46:12;;;;;;;54.47;44.20;;;19.80;99.90;;;;;;4976335;28;20451;-62
2021/06/06 12:48:41;;;;;;;48.70;42.80;;;19.90;99.90;;;;;;4976043;28;20946;-62
2021/06/06 12:51:17;;;;;;;53.17;44.60;;;20.00;99.90;;;;;;4975949;28;20478;-63
2021/06/06 12:53:44;;;;;;;49.90;44.17;;;19.90;99.90;;;;;;4975752;28;20537;-63
2021/06/06 12:56:15;;;;;;;48.90;43.60;;;20.10;99.90;;;;;;4977313;28;20443;-63
2021/06/06 12:58:42;;;;;;;52.00;44.30;;;20.10;99.90;;;;;;4976035;28;20439;-63
2021/06/06 13:01:22;;;;;;;54.70;46.63;;;20.30;99.90;;;;;;4975374;28;20827;-62
2021/06/06 13:03:49;;;;;;;51.30;45.70;;;20.30;99.90;;;;;;4975804;28;20554;-63
2021/06/06 13:06:36;;;;;;;50.23;44.43;;;20.30;99.90;;;;;;4975940;28;20516;-64
2021/06/06 13:09:26;;;;;;;56.33;46.97;;;20.10;99.90;;;;;;4974837;28;20463;-63
2021/06/06 13:11:56;;;;;;;53.20;46.37;;;20.00;99.90;;;;;;4974186;28;20570;-63
2021/06/06 13:14:26;;;;;;;53.80;45.03;;;19.90;99.90;;;;;;4975744;28;20446;-63
2021/06/06 13:17:00;;;;;;;63.53;46.80;;;20.00;99.90;;;;;;4975213;28;20443;-62
2021/06/06 13:19:30;;;;;;;59.13;49.63;;;19.90;99.90;;;;;;4975608;28;20446;-64
2021/06/06 13:22:25;;;;;;;59.00;45.60;;;19.90;99.90;;;;;;4976352;28;20953;-63
2021/06/06 13:24:53;;;;;;;58.77;48.80;;;19.60;99.90;;;;;;4975312;28;20910;-63
2021/06/06 13:27:38;;;;;;;58.57;48.27;;;19.60;99.90;;;;;;4975628;28;20458;-63
2021/06/06 13:30:23;;;;;;;51.87;45.80;;;19.60;99.90;;;;;;4975567;28;20454;-62
2021/06/06 13:33:00;;;;;;;52.43;46.40;;;19.60;99.90;;;;;;4975544;28;20482;-63
2021/06/06 13:35:27;;;;;;;51.50;45.57;;;19.70;99.90;;;;;;4975432;28;20443;-64
2021/06/06 13:37:54;;;;;;;56.40;47.63;;;19.90;99.90;;;;;;4975476;28;20458;-64
2021/06/06 13:40:24;;;;;;;52.57;46.77;;;20.00;99.90;;;;;;4976575;28;20462;-62
2021/06/06 13:42:52;;;;;;;53.20;47.13;;;20.00;99.90;;;;;;4975296;28;20475;-63
2021/06/06 13:45:20;;;;;;;53.67;45.93;;;20.10;99.90;;;;;;4975365;28;20802;-63
2021/06/06 13:47:49;;;;;;;53.70;47.70;;;20.20;99.90;;;;;;4975367;28;20514;-63
2021/06/06 13:50:17;;;;;;;54.10;47.70;;;20.30;99.90;;;;;;4975530;28;20458;-63
2021/06/06 13:52:43;;;;;;;52.73;46.90;;;20.30;99.90;;;;;;4975095;28;20973;-63
2021/06/06 13:55:15;;;;;;;56.40;47.40;;;20.30;99.90;;;;;;4975341;28;20454;-63
2021/06/06 13:57:41;;;;;;;52.67;43.87;;;20.20;99.90;;;;;;4975596;28;20449;-64
2021/06/06 14:00:12;;;;;;;50.50;45.03;;;20.20;99.90;;;;;;4975615;28;20463;-62
2021/06/06 14:02:42;;;;;;;50.87;44.10;;;20.30;99.90;;;;;;4975208;28;20493;-63
2021/06/06 14:05:09;;;;;;;49.33;44.10;;;20.20;99.90;;;;;;4975850;28;20462;-63
2021/06/06 14:07:36;;;;;;;40.00;35.70;;;20.40;99.90;;;;;;4975316;28;20457;-62
2021/06/06 14:10:04;;;;;;;32.40;29.03;;;20.60;99.90;;;;;;4975372;28;20458;-62
2021/06/06 14:12:31;;;;;;;41.97;37.47;;;20.60;99.90;;;;;;4976355;28;20478;-62
2021/06/06 14:14:57;;;;;;;36.40;32.80;;;20.60;99.90;;;;;;4979530;28;20512;-63
2021/06/06 14:17:25;;;;;;;43.40;36.27;;;20.80;99.90;;;;;;4981558;28;20451;-63
2021/06/06 14:19:52;;;;;;;35.23;31.67;;;20.90;99.90;;;;;;4998258;28;20464;-63
2021/06/06 14:22:18;;;;;;;39.30;35.27;;;21.00;99.90;;;;;;4999473;28;20470;-64
2021/06/06 14:24:44;;;;;;;38.93;35.00;;;21.10;99.90;;;;;;4999714;28;20593;-64
2021/06/06 14:27:10;;;;;;;40.00;36.00;;;21.20;99.90;;;;;;4998687;28;20461;-64
2021/06/06 14:29:37;;;;;;;36.93;33.10;;;21.10;99.90;;;;;;5000486;28;20454;-64
2021/06/06 14:32:05;;;;;;;41.97;37.63;;;21.20;99.90;;;;;;4998514;28;20542;-64
2021/06/06 14:34:33;;;;;;;39.43;35.40;;;21.10;99.90;;;;;;4992044;28;20459;-64
2021/06/06 14:36:59;;;;;;;39.67;35.67;;;21.10;99.90;;;;;;4981867;28;20450;-64
2021/06/06 14:39:26;;;;;;;38.47;34.57;;;21.10;99.90;;;;;;4978735;28;20455;-64
2021/06/06 14:41:52;;;;;;;38.73;34.93;;;21.10;99.90;;;;;;4978928;28;20509;-64
2021/06/06 14:44:20;;;;;;;39.47;35.73;;;21.00;99.90;;;;;;4978680;28;20489;-63
2021/06/06 14:46:46;;;;;;;36.27;32.67;;;21.00;99.90;;;;;;4978446;28;20509;-64
2021/06/06 14:49:13;;;;;;;36.90;33.07;;;21.00;99.90;;;;;;4978153;28;20735;-61
2021/06/06 14:51:42;;;;;;;35.07;31.37;;;20.90;99.90;;;;;;4978110;28;20481;-63
2021/06/06 14:54:10;;;;;;;36.27;32.67;;;20.70;99.90;;;;;;4978083;28;20461;-62
2021/06/06 14:56:37;;;;;;;34.90;31.30;;;20.80;99.90;;;;;;4978442;28;20459;-63
2021/06/06 14:59:04;;;;;;;36.20;32.70;;;20.70;99.90;;;;;;4978495;28;20828;-63
2021/06/06 15:01:31;;;;;;;34.53;31.20;;;20.70;99.90;;;;;;4977938;28;20490;-63
2021/06/06 15:03:57;;;;;;;36.33;32.83;;;20.80;99.90;;;;;;4977666;28;21005;-62
2021/06/06 15:06:25;;;;;;;37.70;33.90;;;20.80;99.90;;;;;;4978598;28;20454;-63
2021/06/06 15:08:54;;;;;;;38.50;34.73;;;20.90;99.90;;;;;;4978100;28;20509;-62
2021/06/06 15:11:21;;;;;;;36.93;33.33;;;20.80;99.90;;;;;;4978440;28;20478;-63
2021/06/06 15:13:47;;;;;;;42.63;38.27;;;20.80;99.90;;;;;;4978815;28;20454;-64
2021/06/06 15:16:17;;;;;;;35.43;31.83;;;20.90;99.90;;;;;;4978565;28;20509;-63
2021/06/06 15:18:45;;;;;;;37.70;34.00;;;20.80;99.90;;;;;;4978341;28;20458;-65
2021/06/06 15:21:16;;;;;;;36.53;33.03;;;20.80;99.90;;;;;;4977776;28;20840;-64
2021/06/06 15:23:43;;;;;;;38.67;34.73;;;20.80;99.90;;;;;;4977305;28;20956;-65
2021/06/06 15:26:11;;;;;;;40.30;35.90;;;20.80;99.90;;;;;;4978479;28;20492;-64
2021/06/06 15:28:37;;;;;;;42.13;37.80;;;20.60;99.90;;;;;;4977736;28;20450;-62
2021/06/06 15:31:06;;;;;;;42.97;38.70;;;20.60;99.90;;;;;;4977592;28;20958;-63
2021/06/06 15:33:33;;;;;;;41.97;37.80;;;20.50;99.90;;;;;;4977946;28;20450;-64
2021/06/06 15:36:01;;;;;;;44.80;40.10;;;20.50;99.90;;;;;;4978644;28;20458;-63
2021/06/06 15:38:30;;;;;;;46.10;41.23;;;20.50;99.90;;;;;;4977497;28;20454;-62
2021/06/06 15:41:00;;;;;;;46.17;41.37;;;20.30;99.90;;;;;;4978324;28;20501;-63
2021/06/06 15:43:30;;;;;;;50.53;43.87;;;20.00;99.90;;;;;;4978169;28;20481;-65
2021/06/06 15:45:56;;;;;;;49.87;43.00;;;19.80;99.90;;;;;;4978624;28;20445;-64
2021/06/06 15:48:26;;;;;;;53.43;44.90;;;19.80;99.90;;;;;;4977661;28;20458;-64
2021/06/06 15:50:52;;;;;;;50.83;43.73;;;19.70;99.90;;;;;;4977592;28;20475;-61
2021/06/06 15:53:19;;;;;;;51.37;42.90;;;19.60;99.90;;;;;;4977655;28;20431;-65
2021/06/06 15:55:49;;;;;;;50.17;44.67;;;19.50;99.90;;;;;;4979401;28;20465;-64
2021/06/06 15:58:17;;;;;;;50.57;43.30;;;19.50;99.90;;;;;;4980202;28;20439;-64
2021/06/06 16:00:47;;;;;;;52.47;44.70;;;19.50;99.90;;;;;;4979158;28;20549;-62
2021/06/06 16:03:21;;;;;;;46.17;40.50;;;19.60;99.90;;;;;;4980979;28;21080;-64
2021/06/06 16:05:48;;;;;;;42.70;38.27;;;19.50;99.90;;;;;;4979918;28;20542;-63
2021/06/06 16:08:14;;;;;;;42.60;38.10;;;19.50;99.90;;;;;;4979866;28;20443;-64
2021/06/06 16:10:41;;;;;;;37.27;33.30;;;19.40;99.90;;;;;;4979193;28;20478;-64
2021/06/06 16:13:07;;;;;;;35.90;32.13;;;19.30;99.90;;;;;;4978966;28;20459;-65
2021/06/06 16:15:34;;;;;;;35.20;31.87;;;19.20;99.90;;;;;;4979391;28;20447;-65
2021/06/06 16:18:01;;;;;;;38.30;34.50;;;19.30;99.90;;;;;;4979883;28;20461;-64
2021/06/06 16:20:28;;;;;;;37.80;34.30;;;19.30;99.90;;;;;;4978433;28;20518;-63
2021/06/06 16:22:55;;;;;;;35.83;32.40;;;19.30;99.90;;;;;;4978140;28;20557;-63
2021/06/06 16:25:23;;;;;;;37.90;34.30;;;19.40;99.90;;;;;;4978303;28;20454;-64
2021/06/06 16:27:50;;;;;;;34.57;31.27;;;19.30;99.90;;;;;;4980310;28;20534;-64
2021/06/06 16:30:20;;;;;;;41.67;37.53;;;19.40;99.90;;;;;;4978305;28;20831;-64
2021/06/06 16:32:46;;;;;;;42.60;38.63;;;19.40;99.90;;;;;;4980143;28;20453;-64
2021/06/06 16:35:15;;;;;;;33.87;30.70;;;19.50;99.90;;;;;;4978908;28;20493;-63
2021/06/06 16:37:41;;;;;;;32.53;29.43;;;19.40;99.90;;;;;;4978054;28;20549;-63
2021/06/06 16:40:09;;;;;;;33.80;30.77;;;19.40;99.90;;;;;;4977306;28;20481;-64
2021/06/06 16:42:36;;;;;;;35.60;32.20;;;19.50;99.90;;;;;;4977268;28;20475;-64